Enugu, Nigeria
Current Conditions -  °F | °C
As of 5:00 PM on Friday 24 Oct 2014 (Local Time) from FKKD Reporting Station
Thunderstorm Thunderstorm  
Wind Chill: 84°   Ceiling: 1600
Heat Index: 92°   Visibility: 6mi
Dew Point: 75°   Wind: 12mph
Humidity: 74%   Direction: 260°W
Pressure: 29.8"   Gusts: NA
Location:  6.33°N, 7.5°E
Report Text: FKKD 241600Z 26010KT 9999 TS BKN016 SCT020CB 29/24 Q1009 NOSIG
Loading
Personal Weather Stations






























Interactive Weather Map
Tropical Storm Tracking
New forecast layout! Learn more

10-Day Weather Forecast

Advertisements
Track Severe Weather on mobile